Terminal Aerodrome Forecast
Issued by NWS

Home | Current Version | Previous Version | Text Only | Print | Product List | Glossary On
Versions: 1 2 3 4 5 6 7 8 9 10 11 12 13 14 15 16 17 18 19 20 21 22 23 24
000
FTUS43 KLSX 232357 AAA
TAFUIN
TAF AMD
KUIN 232357Z 2400/2424 36004KT P6SM OVC015
     FM240200 01005KT P6SM OVC020
     FM240600 04008KT 4SM -RA BR OVC006
     FM241300 09011KT 2SM BR OVC003
     FM242100 12012KT 4SM -SHRA BR OVC005=

USA.gov is the U.S. government's official web portal to all federal, state and local government web resources and services.